createdAt,value
2022-10-24T00:00:25.512Z,87.88
2022-10-24T00:10:50.582Z,87.85
2022-10-24T00:20:54.728Z,87.81
2022-10-24T00:30:58.668Z,87.60
2022-10-24T00:41:02.533Z,87.69
2022-10-24T00:51:17.347Z,87.98
2022-10-24T01:01:21.247Z,88.13
2022-10-24T01:11:34.290Z,88.06
2022-10-24T01:21:46.651Z,87.67
2022-10-24T01:32:17.237Z,87.53
2022-10-24T01:42:23.439Z,87.41
2022-10-24T01:52:32.256Z,87.56
2022-10-24T02:02:49.425Z,88.24
2022-10-24T02:13:00.469Z,88.59
2022-10-24T02:23:27.647Z,88.03
2022-10-24T02:33:32.969Z,87.76
2022-10-24T02:43:39.183Z,88.55
2022-10-24T02:53:43.063Z,88.04
2022-10-24T03:03:47.239Z,88.70
2022-10-24T03:13:51.641Z,89.95
2022-10-24T03:23:55.342Z,89.35
2022-10-24T03:33:59.767Z,88.63
2022-10-24T03:44:03.566Z,88.71
2022-10-24T03:54:07.294Z,88.47
2022-10-24T04:04:10.887Z,88.59
2022-10-24T04:14:15.071Z,90.06
2022-10-24T04:24:18.722Z,90.49
2022-10-24T04:34:22.597Z,91.21
2022-10-24T04:44:26.067Z,91.68
2022-10-24T04:54:29.618Z,92.20
2022-10-24T05:04:33.571Z,91.65
2022-10-24T05:14:37.364Z,90.75
2022-10-24T05:24:41.564Z,88.92
2022-10-24T05:34:45.401Z,88.95
2022-10-24T05:44:49.568Z,89.85
2022-10-24T05:55:06.698Z,89.73
2022-10-24T06:05:12.604Z,89.39
2022-10-24T06:15:16.248Z,89.37
2022-10-24T06:25:20.509Z,89.63
2022-10-24T06:35:24.178Z,89.91
2022-10-24T06:45:28.085Z,90.65
2022-10-24T06:55:31.905Z,91.48
2022-10-24T07:05:37.413Z,92.11
2022-10-24T07:15:41.581Z,91.93
2022-10-24T07:25:45.826Z,91.59
2022-10-24T07:35:49.910Z,91.36
2022-10-24T07:45:54.141Z,91.17
2022-10-24T07:56:00.439Z,90.35
2022-10-24T08:06:17.118Z,89.22
2022-10-24T08:16:23.132Z,88.64
2022-10-24T08:26:27.820Z,88.06
2022-10-24T08:36:37.498Z,86.72
2022-10-24T08:47:19.713Z,85.80
2022-10-24T08:57:29.563Z,85.20
2022-10-24T09:07:33.869Z,83.20
2022-10-24T09:17:38.665Z,81.79
2022-10-24T09:27:44.271Z,80.49
2022-10-24T09:37:55.906Z,79.88
2022-10-24T09:48:24.687Z,78.32
2022-10-24T09:58:36.204Z,77.90
2022-10-24T10:08:41.575Z,75.43
2022-10-24T10:18:47.510Z,73.41
2022-10-24T10:29:21.252Z,70.87
2022-10-24T10:39:57.868Z,68.40
2022-10-24T10:50:03.508Z,67.80
2022-10-24T11:00:18.720Z,68.60
2022-10-24T11:10:28.334Z,69.45
2022-10-24T11:20:38.340Z,69.95
2022-10-24T11:30:56.534Z,71.13
2022-10-24T11:41:20.553Z,71.00
2022-10-24T11:51:39.575Z,70.28
2022-10-24T12:01:52.329Z,69.51
2022-10-24T12:12:19.021Z,68.95
2022-10-24T12:22:30.504Z,68.85
2022-10-24T12:32:41.007Z,70.41
2022-10-24T12:42:44.942Z,70.26
2022-10-24T12:52:50.475Z,70.05
2022-10-24T13:03:08.662Z,69.99
2022-10-24T13:13:44.157Z,70.17
2022-10-24T13:23:49.769Z,69.95
2022-10-24T13:34:07.341Z,69.15
2022-10-24T13:44:45.911Z,69.13
2022-10-24T13:54:56.629Z,69.05
2022-10-24T14:05:02.804Z,69.27
2022-10-24T14:15:20.654Z,69.29
2022-10-24T14:25:33.469Z,69.95
2022-10-24T14:35:37.554Z,70.92
2022-10-24T14:45:41.162Z,72.37
2022-10-24T14:55:51.507Z,72.94
2022-10-24T15:06:10.028Z,73.59
2022-10-24T15:16:29.011Z,74.17
2022-10-24T15:26:41.065Z,75.01
2022-10-24T15:36:47.735Z,75.60
2022-10-24T15:46:51.558Z,76.52
2022-10-24T15:56:56.239Z,76.89
2022-10-24T16:07:00.869Z,78.29
2022-10-24T16:17:04.960Z,78.83
2022-10-24T16:27:09.699Z,79.95
2022-10-24T16:37:13.361Z,81.46
2022-10-24T16:47:18.354Z,82.76
2022-10-24T17:07:28.762Z,83.16
2022-10-24T17:17:35.348Z,83.32
2022-10-24T17:27:39.962Z,83.54
2022-10-24T17:37:47.836Z,83.66
2022-10-24T17:47:53.963Z,84.10
2022-10-24T17:57:59.264Z,84.58
2022-10-24T18:08:07.119Z,85.32
2022-10-24T18:18:12.784Z,85.71
2022-10-24T18:28:17.221Z,85.10
2022-10-24T18:38:22.297Z,84.86
2022-10-24T18:48:30.402Z,85.35
2022-10-24T18:58:36.566Z,85.04
2022-10-24T19:08:41.053Z,85.04
2022-10-24T19:18:55.096Z,85.57
2022-10-24T19:29:03.533Z,85.48
2022-10-24T19:39:10.711Z,86.28
2022-10-24T19:49:15.522Z,86.17
2022-10-24T19:59:22.295Z,85.52
2022-10-24T20:09:27.125Z,86.25
2022-10-24T20:19:32.336Z,86.14
2022-10-24T20:29:37.352Z,86.67
2022-10-24T20:39:41.711Z,86.26
2022-10-24T20:49:45.378Z,86.10
2022-10-24T20:59:49.859Z,86.34
2022-10-24T21:09:57.825Z,85.97
2022-10-24T21:20:03.228Z,85.89
2022-10-24T21:30:12.156Z,86.43
2022-10-24T21:40:18.746Z,86.48
2022-10-24T21:50:22.619Z,86.02
2022-10-24T22:00:26.423Z,86.03
2022-10-24T22:10:30.158Z,86.35
2022-10-24T22:20:35.167Z,86.42
2022-10-24T22:30:40.515Z,86.76
2022-10-24T22:40:44.379Z,87.53
2022-10-24T22:50:54.657Z,87.22
2022-10-24T23:01:23.382Z,87.03
2022-10-24T23:11:27.506Z,86.90
2022-10-24T23:21:38.407Z,87.16
2022-10-24T23:31:42.330Z,87.64
2022-10-24T23:41:46.230Z,87.91
2022-10-24T23:52:12.416Z,87.60
